Flight Track Log - Related Links

Times and Time Zones

All times are in EDT time to prevent confusion due to time zone crossing. See the JBU56 flight status page for this flight to view local times or setup timezone preferences in your user account.

Time Position Orientation Groundspeed Altitude Reporting Facility
EDT Latitude Longitude Course Direction KTS MPH feet Rate Location/Type
Sun 09:08:08 AM 38.9833 -77.5000 46° Northeast 177 204 2,000  Level Potomac TRACON
Sun 09:09:07 AM 39.0333 -77.5167 345° North 223 257 4,900 2,789 Climbing Potomac TRACON
Sun 09:10:00 AM 39.3154 -75.6943 41° Northeast  Level FlightAware Approximate
Sun 09:10:02 AM 39.1000 -77.5333 349° North 240 276 7,300  Level Potomac TRACON
Sun 09:11:00 AM 39.3678 -75.6344 41° Northeast  Level FlightAware Approximate
Sun 09:11:02 AM 39.1667 -77.5000 21° North 297 342 9,800  Level Potomac TRACON
Sun 09:12:00 AM 39.4176 -75.5710 46° Northeast  Level FlightAware Approximate
Sun 09:12:48 AM 39.1472 -77.3097 97° East 349 402 10,000  Level Washington Center
Sun 09:13:00 AM 39.4663 -75.5061 46° Northeast  Level FlightAware Approximate
Sun 09:13:47 AM 39.1133 -77.1833 109° East 344 396 12,600  Level Washington Center
Sun 09:14:47 AM 39.0836 -77.0622 108° East 349 402 15,100 2,380 Climbing Washington Center
Sun 09:15:48 AM 39.0539 -76.9308 106° East 363 418 17,400 1,918 Climbing Washington Center
Sun 09:16:49 AM 39.0219 -76.7992 107° East 375 432 19,000 1,041 Climbing Washington Center
Sun 09:17:49 AM 39.0022 -76.6681 101° East 375 432 19,500 915 Climbing Washington Center
Sun 09:18:47 AM 39.0556 -76.5353 63° Northeast 379 436 20,800 1,513 Climbing Washington Center
Sun 09:19:48 AM 39.1314 -76.4103 52° Northeast 404 465 22,500 1,636 Climbing Washington Center
Sun 09:20:48 AM 39.2072 -76.2800 53° Northeast 426 490 24,100 1,438 Climbing Washington Center
Sun 09:21:49 AM 39.2872 -76.1494 52° Northeast 447 514 25,400 1,373 Climbing Washington Center
Sun 09:22:46 AM 39.3628 -76.0131 54° Northeast 459 528 26,800 1,271 Climbing Washington Center
Sun 09:23:47 AM 39.4383 -75.8736 55° Northeast 459 528 27,900 1,240 Climbing Washington Center
Sun 09:24:47 AM 39.5197 -75.7314 53° Northeast 472 543 29,300 1,127 Climbing Washington Center
Sun 09:26:32 AM 39.6586 -75.4872 53° Northeast 483 556 31,000 614 Climbing New York Center
Sun 09:27:33 AM 39.7394 -75.3414 54° Northeast 483 556 31,000  Level New York Center
Sun 09:28:30 AM 39.8219 -75.1981 53° Northeast 488 562 31,000  Level New York Center
Sun 09:29:31 AM 39.8917 -75.0644 56° Northeast 495 570 31,000  Level New York Center
Sun 09:30:32 AM 39.9778 -74.9289 50° Northeast 490 564 31,000  Level New York Center
Sun 09:31:30 AM 40.0642 -74.7822 52° Northeast 497 572 31,000  Level New York Center
Sun 09:32:30 AM 40.1481 -74.6431 52° Northeast 497 572 31,000  Level New York Center
Sun 09:33:31 AM 40.2339 -74.5011 52° Northeast 497 572 31,000  Level New York Center
Sun 09:34:32 AM 40.3194 -74.3589 52° Northeast 497 572 31,000  Level New York Center
Sun 09:35:32 AM 40.4053 -74.2133 52° Northeast 497 572 31,000 -59 Level New York Center
Sun 09:37:56 AM 40.6244 -73.8483 52° Northeast 488 562 30,800 -853 Descending Boston Center
Sun 09:38:56 AM 40.7094 -73.6994 53° Northeast 511 588 28,100 -2,500 Descending Boston Center
Sun 09:39:56 AM 40.7839 -73.5639 54° Northeast 511 588 25,800 -2,050 Descending Boston Center
Sun 09:40:56 AM 40.8642 -73.4308 51° Northeast 484 557 24,000 -1,050 Descending Boston Center
Sun 09:41:56 AM 40.9528 -73.3003 48° Northeast 471 542 23,700 -500 Descending Boston Center
Sun 09:42:56 AM 41.0372 -73.1747 48° Northeast 459 528 23,000 -350 Descending Boston Center
Sun 09:43:56 AM 41.1233 -73.0464 48° Northeast 459 528 23,000  Level Boston Center
Sun 09:44:56 AM 41.1950 -72.9008 57° Northeast 464 534 23,000  Level Boston Center
Sun 09:45:56 AM 41.2517 -72.7467 64° Northeast 464 534 23,000  Level Boston Center
Sun 09:46:56 AM 41.3186 -72.5672 64° Northeast 479 551 23,000  Level Boston Center
Sun 09:47:56 AM 41.3667 -72.4261 66° East 479 551 23,000  Level Boston Center
Sun 09:48:56 AM 41.4292 -72.2600 63° Northeast 473 544 23,000 -950 Level Boston Center
Sun 09:49:56 AM 41.4869 -72.1019 64° Northeast 458 527 21,100 -1,750 Descending Boston Center
Sun 09:50:56 AM 41.5181 -72.0131 65° Northeast 452 520 19,500 -2,500 Descending Boston Center
Sun 09:51:56 AM 41.5919 -71.8044 65° Northeast 440 506 16,100 -2,700 Descending Boston Center
Sun 09:52:56 AM 41.6350 -71.6817 65° Northeast 416 479 14,100 -2,100 Descending Boston Center
Sun 09:53:56 AM 41.6861 -71.5367 65° Northeast 399 459 11,900 -1,550 Descending Boston Center
Sun 09:54:56 AM 41.7167 -71.4528 64° Northeast 369 425 11,000 -450 Descending Boston Center
Sun 09:55:56 AM 41.7778 -71.3128 60° Northeast 342 394 11,000  Level Boston Center
Sun 09:56:56 AM 41.8503 -71.2528 32° Northeast 299 344 11,000 -670 Level Boston Center
Sun 09:59:31 AM 42.0500 -71.1500 21° North 255 293 8,600 -1,256 Descending KA90
Sun 10:00:31 AM 42.1167 -71.1333 11° North 242 278 6,500 -2,050 Descending KA90
Sun 10:01:31 AM 42.1667 -71.1000 26° Northeast 227 261 4,500 -1,474 Descending KA90
Sun 10:02:25 AM 42.2167 -71.0667 26° Northeast 183 211 3,700 -1,357 Descending KA90
Sun 10:03:26 AM 42.2667 -71.0500 14° North 171 197 1,900 -1,286 Descending KA90
Sun 10:04:31 AM 42.3000 -71.0333 20° North 141 162 1,000 -762 Descending KA90
Sun 10:05:32 AM 42.3333 -71.0167 20° North 136 157 300 -689 Descending KA90
Sun 10:07:00 AM 42.3500 -71.0000 North  Level FlightAware Approximate

Login

Don't have an account? Register now (free) for customized features, flight alerts, and more!